KBKW/BKW METAR and TAF weather

Enter ICAO airport designator
Station Type Date Time Source
KBKW METAR 2019/02/23 16:51 UTC NOAA

KBKW 231651Z AUTO 15012G24KT 6SM -RA BR OVC065 04/04 A3018 RMK AO2 PK WND 15027/1631 SLP230 P0006 T00440039


Station Type Date Time Source
KBKW Decoded METAR 2019/02/23 16:51 UTC NOAA

RALEIGH COUNTY MEM AIRPORT , WV, United States (KBKW) 37-48N 081-07W 764M
Feb 23, 2019 - 11:51 AM EST / 2019.02.23 1651 UTC
Wind: from the SSE (150 degrees) at 14 MPH (12 KT) gusting to 28 MPH (24 KT):0
Visibility: 6 mile(s):0
Sky conditions: overcast
Weather: light rain; mist
Precipitation last hour: 0.06 inches
Temperature: 39.9 F (4.4 C)
Dew Point: 39.0 F (3.9 C)
Relative Humidity: 96%
Pressure (altimeter): 30.18 in. Hg (1022 hPa)
ob: KBKW 231651Z AUTO 15012G24KT 6SM -RA BR OVC065 04/04 A3018 RMK AO2 PK WND 15027/1631 SLP230 P0006 T00440039
cycle: 17

Station Type Date Time Source
KBKW TAF 2019/02/23 14:12 UTC NOAA

TAF
AMD KBKW 231408Z 2314/2412 14012G22KT 4SM -RA SCT010 BKN025 OVC050
FM231900 14012G20KT P6SM -SHRA OVC015
FM240100 15010G18KT 5SM -SHRA OVC015
FM240800 17010G17KT 6SM -SHRA OVC025 WS020/21050KT


Example: see airport list